| Date | Time | Temp. (oF) | Dew Point (oF) | Rel. Hum. (%) | Press. (in.) | Wind Dir. | Wind Speed (mph) | Hourly Rainfall (in.) |
|
|---|---|---|---|---|---|---|---|---|---|
| 1 | 01/21 | 00:00 | 17 | 4 | 58 | 30.06 | WNW | 3 | 0.00 |
| 2 | 01/20 | 23:00 | 17 | 4 | 58 | 30.05 | WNW | 5 | 0.00 |
| 3 | 01/20 | 22:00 | 19 | 5 | 54 | 30.04 | WSW | 2 | 0.00 |
| 4 | 01/20 | 21:00 | 19 | 3 | 50 | 30.02 | SSW | 5 | 0.00 |
| 5 | 01/20 | 20:00 | 20 | 2 | 46 | 30.00 | WNW | 16 | 0.00 |
| 6 | 01/20 | 19:00 | 22 | 3 | 45 | 29.98 | NW | 9 | 0.00 |
| 7 | 01/20 | 18:00 | 23 | 3 | 43 | 29.95 | W | 12 | 0.00 |
| 8 | 01/20 | 17:00 | 24 | 3 | 40 | 29.92 | WNW | 10 | 0.00 |
| 9 | 01/20 | 16:00 | 25 | 1 | 35 | 29.86 | WNW | 15 | 0.00 |
| 10 | 01/20 | 15:00 | 28 | 2 | 33 | 29.82 | WNW | 22 | 0.00 |
| 11 | 01/20 | 14:00 | 30 | 4 | 33 | 29.80 | WNW | 12 | 0.00 |
| 12 | 01/20 | 13:00 | 28 | -1 | 28 | 29.81 | WNW | 23 | 0.00 |
| 13 | 01/20 | 12:00 | 29 | 9 | 44 | 29.80 | WNW | 16 | 0.00 |
| 14 | 01/20 | 11:00 | 30 | 16 | 56 | 29.79 | WNW | 22 | 0.00 |
| 15 | 01/20 | 10:00 | 26 | 23 | 89 | 29.78 | WNW | 12 | 0.00 |
| 16 | 01/20 | 09:00 | 31 | 24 | 77 | 29.71 | WSW | 8 | 0.00 |
| 17 | 01/20 | 08:00 | 28 | 24 | 88 | 29.69 | SSW | 8 | 0.00 |
| 18 | 01/20 | 07:00 | 27 | 18 | 69 | 29.69 | SW | 5 | 0.00 |
| 19 | 01/20 | 06:00 | 27 | 16 | 64 | 29.68 | SW | 5 | 0.00 |
| 20 | 01/20 | 05:00 | 26 | 14 | 61 | 29.68 | SSW | 4 | 0.00 |
| 21 | 01/20 | 04:00 | 25 | 12 | 58 | 29.69 | SSW | 8 | 0.00 |
| 22 | 01/20 | 03:00 | 25 | 11 | 56 | 29.72 | SSW | 7 | 0.00 |
| 23 | 01/20 | 02:00 | 25 | 9 | 52 | 29.73 | SSW | 11 | 0.00 |
| 24 | 01/20 | 01:00 | 24 | 8 | 52 | 29.75 | SSW | 10 | 0.00 |